Time;durP1;ratioP1;P1;durP2;ratioP2;P2;SDS_P1;SDS_P2;PMS_P1;PMS_P2;Temp;Humidity;BMP_temperature;BMP_pressure;BME280_temperature;BME280_humidity;BME280_pressure;Samples;Min_cycle;Max_cycle;Signal;HPM_P1;HPM_P2
2021/12/18 00:00:30;;;;;;;7.90;2.42;;;;;;;;;;5095119;28;20035;-76
2021/12/18 00:02:56;;;;;;;8.40;3.22;;;;;;;;;;5103464;28;20039;-76
2021/12/18 00:05:22;;;;;;;29.75;4.82;;;;;;;;;;5107084;28;20029;-76
2021/12/18 00:07:48;;;;;;;10.23;4.80;;;;;;;;;;5101660;28;20110;-76
2021/12/18 00:10:19;;;;;;;8.23;4.63;;;;;;;;;;5107155;28;20069;-76
2021/12/18 00:12:49;;;;;;;9.77;4.65;;;;;;;;;;5100688;28;20442;-76
2021/12/18 00:15:15;;;;;;;10.18;4.88;;;;;;;;;;5105941;28;20115;-76
2021/12/18 00:17:41;;;;;;;33.05;4.45;;;;;;;;;;5108308;28;20036;-76
2021/12/18 00:20:07;;;;;;;30.00;3.92;;;;;;;;;;5103928;28;20062;-75
2021/12/18 00:22:33;;;;;;;25.92;5.40;;;;;;;;;;5106096;28;21018;-76
2021/12/18 00:24:59;;;;;;;26.65;6.53;;;;;;;;;;5100352;28;20074;-76
2021/12/18 00:27:25;;;;;;;16.80;5.85;;;;;;;;;;5099128;28;20107;-76
2021/12/18 00:29:51;;;;;;;16.33;6.35;;;;;;;;;;5099798;28;20036;-76
2021/12/18 00:32:17;;;;;;;20.27;6.90;;;;;;;;;;5108905;28;20028;-76
2021/12/18 00:34:44;;;;;;;15.75;7.10;;;;;;;;;;5097759;28;20032;-76
2021/12/18 00:37:10;;;;;;;18.05;4.65;;;;;;;;;;5110873;28;20092;-77
2021/12/18 00:39:43;;;;;;;14.23;3.22;;;;;;;;;;5104673;28;20046;-77
2021/12/18 00:42:37;;;;;;;9.77;2.33;;;;;;;;;;5099964;28;20097;-76
2021/12/18 00:45:04;;;;;;;17.73;2.20;;;;;;;;;;5100748;27;20058;-78
2021/12/18 00:47:30;;;;;;;7.93;1.98;;;;;;;;;;5103220;28;20038;-77
2021/12/18 00:49:56;;;;;;;6.03;1.83;;;;;;;;;;5099913;28;20126;-77
2021/12/18 00:52:23;;;;;;;6.03;1.80;;;;;;;;;;5103690;28;20481;-77
2021/12/18 00:54:50;;;;;;;7.40;1.92;;;;;;;;;;5105616;28;20036;-75
2021/12/18 00:57:16;;;;;;;4.28;2.35;;;;;;;;;;5105041;28;20073;-75
2021/12/18 00:59:42;;;;;;;11.13;2.15;;;;;;;;;;5097276;28;20051;-76
2021/12/18 01:02:09;;;;;;;7.85;2.00;;;;;;;;;;5105498;28;20078;-75
2021/12/18 01:04:35;;;;;;;4.45;1.58;;;;;;;;;;5106804;28;20030;-75
2021/12/18 01:07:01;;;;;;;8.00;2.08;;;;;;;;;;5103326;28;20031;-75
2021/12/18 01:10:23;;;;;;;3.63;2.20;;;;;;;;;;5110433;28;20036;-75
2021/12/18 01:12:16;;;;;;;5.45;1.77;;;;;;;;;;5092706;28;20036;-75
2021/12/18 01:15:09;;;;;;;4.30;1.60;;;;;;;;;;5105603;28;20027;-75
2021/12/18 01:23:04;;;;;;;14.63;1.55;;;;;;;;;;5104305;28;20039;-75
2021/12/18 01:25:30;;;;;;;5.75;2.55;;;;;;;;;;5102571;28;20024;-76
2021/12/18 01:27:56;;;;;;;11.70;4.20;;;;;;;;;;5097137;28;20028;-75
2021/12/18 01:30:22;;;;;;;8.90;4.03;;;;;;;;;;5098886;28;20492;-76
2021/12/18 01:32:49;;;;;;;7.20;3.03;;;;;;;;;;5106884;28;20045;-75
2021/12/18 01:35:15;;;;;;;16.10;3.20;;;;;;;;;;5101642;28;20453;-75
2021/12/18 01:37:43;;;;;;;9.88;2.72;;;;;;;;;;5096558;28;20088;-75
2021/12/18 01:40:09;;;;;;;10.93;1.80;;;;;;;;;;5104788;28;20038;-76
2021/12/18 01:43:20;;;;;;;22.52;2.10;;;;;;;;;;5098708;28;20046;-75
2021/12/18 01:45:32;;;;;;;15.75;1.95;;;;;;;;;;5097595;28;20078;-75
2021/12/18 01:53:27;;;;;;;16.35;1.85;;;;;;;;;;5098744;28;20054;-76
2021/12/18 01:55:53;;;;;;;10.15;1.50;;;;;;;;;;5099539;28;20031;-76
2021/12/18 01:58:23;;;;;;;15.43;1.20;;;;;;;;;;5107129;28;20067;-76
2021/12/18 02:00:50;;;;;;;15.43;1.40;;;;;;;;;;5100243;28;20038;-75
2021/12/18 02:03:16;;;;;;;2.88;1.58;;;;;;;;;;5096500;28;20016;-76
2021/12/18 02:05:42;;;;;;;16.45;1.48;;;;;;;;;;5096834;28;20070;-75
2021/12/18 02:08:08;;;;;;;12.00;1.40;;;;;;;;;;5105303;28;20567;-75
2021/12/18 02:13:25;;;;;;;24.52;3.78;;;;;;;;;;5109761;28;20114;-75
2021/12/18 02:21:26;;;;;;;22.88;4.85;;;;;;;;;;5099906;28;20101;-75
2021/12/18 02:23:52;;;;;;;20.92;3.83;;;;;;;;;;5106227;28;20036;-75
2021/12/18 02:26:20;;;;;;;37.40;4.80;;;;;;;;;;5099230;28;20039;-75
2021/12/18 02:28:48;;;;;;;66.60;7.50;;;;;;;;;;5094261;28;20024;-76
2021/12/18 02:31:15;;;;;;;34.42;5.72;;;;;;;;;;5105369;28;20110;-75
2021/12/18 02:33:41;;;;;;;29.92;6.30;;;;;;;;;;5099075;28;20047;-76
2021/12/18 02:36:10;;;;;;;29.55;5.82;;;;;;;;;;5110484;28;20056;-76
2021/12/18 02:41:31;;;;;;;33.97;5.03;;;;;;;;;;5106844;28;20114;-75
2021/12/18 02:43:58;;;;;;;13.05;4.55;;;;;;;;;;5102847;28;20016;-76
2021/12/18 02:46:24;;;;;;;19.40;4.22;;;;;;;;;;5103014;28;20106;-75
2021/12/18 02:48:52;;;;;;;20.60;4.57;;;;;;;;;;5099628;28;20113;-76
2021/12/18 02:51:19;;;;;;;35.95;4.55;;;;;;;;;;5095978;28;20027;-76
2021/12/18 02:53:47;;;;;;;15.52;3.97;;;;;;;;;;5098585;28;20028;-76
2021/12/18 02:56:14;;;;;;;20.60;4.32;;;;;;;;;;5097327;28;20035;-76
2021/12/18 02:58:41;;;;;;;22.30;4.65;;;;;;;;;;5101817;28;20039;-76
2021/12/18 03:01:08;;;;;;;10.52;4.13;;;;;;;;;;5097603;28;20028;-76
2021/12/18 03:03:37;;;;;;;14.02;3.72;;;;;;;;;;5108442;28;20039;-76
2021/12/18 03:06:28;;;;;;;12.52;4.45;;;;;;;;;;5106435;28;20019;-76
2021/12/18 03:27:20;;;;;;;11.65;2.60;;;;;;;;;;5101024;28;20044;-74
2021/12/18 03:29:47;;;;;;;13.75;2.80;;;;;;;;;;5099643;28;20020;-75
2021/12/18 03:32:13;;;;;;;8.55;2.65;;;;;;;;;;5100773;28;20032;-75
2021/12/18 03:34:39;;;;;;;7.38;2.05;;;;;;;;;;5100275;28;20054;-75
2021/12/18 03:37:05;;;;;;;9.63;2.78;;;;;;;;;;5093394;28;20049;-75
2021/12/18 03:39:31;;;;;;;10.48;2.80;;;;;;;;;;5097846;28;20110;-75
2021/12/18 03:41:57;;;;;;;17.73;2.25;;;;;;;;;;5094259;28;20498;-75
2021/12/18 03:44:24;;;;;;;9.70;2.55;;;;;;;;;;5104389;28;20409;-75
2021/12/18 03:46:50;;;;;;;20.15;2.40;;;;;;;;;;5103471;28;20431;-74
2021/12/18 03:49:16;;;;;;;13.02;2.00;;;;;;;;;;5108663;28;20027;-74
2021/12/18 03:51:42;;;;;;;7.15;2.17;;;;;;;;;;5108088;28;20039;-75
2021/12/18 03:54:08;;;;;;;10.68;2.25;;;;;;;;;;5102580;28;20084;-75
2021/12/18 03:56:34;;;;;;;14.07;2.58;;;;;;;;;;5098198;28;20036;-75
2021/12/18 03:59:00;;;;;;;6.22;2.47;;;;;;;;;;5105792;28;20046;-75
2021/12/18 04:01:26;;;;;;;9.10;2.58;;;;;;;;;;5103053;28;20055;-75
2021/12/18 04:03:52;;;;;;;6.20;2.30;;;;;;;;;;5080973;28;20031;-75
2021/12/18 04:06:18;;;;;;;11.57;2.50;;;;;;;;;;5101807;28;20031;-75
2021/12/18 04:08:44;;;;;;;13.07;2.95;;;;;;;;;;5101981;28;20036;-75
2021/12/18 04:11:10;;;;;;;7.25;2.65;;;;;;;;;;5105130;28;20042;-76
2021/12/18 04:13:37;;;;;;;8.57;2.97;;;;;;;;;;5110971;28;20808;-75
2021/12/18 04:16:03;;;;;;;11.25;3.00;;;;;;;;;;5104386;28;20035;-76
2021/12/18 04:18:29;;;;;;;12.38;2.75;;;;;;;;;;5107752;28;20045;-76
2021/12/18 04:20:55;;;;;;;7.57;2.97;;;;;;;;;;5101411;28;20044;-76
2021/12/18 04:23:21;;;;;;;7.18;3.00;;;;;;;;;;5108422;28;20106;-76
2021/12/18 04:25:47;;;;;;;8.05;3.53;;;;;;;;;;5099803;28;20111;-76
2021/12/18 04:28:13;;;;;;;7.07;2.75;;;;;;;;;;5099593;28;20017;-76
2021/12/18 04:30:39;;;;;;;13.98;3.92;;;;;;;;;;5103838;28;20043;-75
2021/12/18 04:33:05;;;;;;;10.07;3.60;;;;;;;;;;5109148;28;20113;-75
2021/12/18 04:35:31;;;;;;;9.60;3.80;;;;;;;;;;5094717;28;20054;-76
2021/12/18 04:37:57;;;;;;;8.30;4.18;;;;;;;;;;5106539;28;20036;-75
2021/12/18 04:40:26;;;;;;;11.75;4.50;;;;;;;;;;5105637;28;20030;-76
2021/12/18 04:42:52;;;;;;;9.43;4.30;;;;;;;;;;5101641;28;20470;-75
2021/12/18 04:45:18;;;;;;;12.90;4.43;;;;;;;;;;5104872;28;20032;-75
2021/12/18 04:47:44;;;;;;;16.23;5.30;;;;;;;;;;5102612;28;20077;-76
2021/12/18 04:50:10;;;;;;;15.60;4.22;;;;;;;;;;5106237;28;20031;-76
2021/12/18 04:52:36;;;;;;;11.82;5.15;;;;;;;;;;5103035;28;20059;-75
2021/12/18 04:55:04;;;;;;;13.10;4.90;;;;;;;;;;5108101;28;20106;-75
2021/12/18 04:57:30;;;;;;;17.27;5.22;;;;;;;;;;5106568;28;20027;-75
2021/12/18 04:59:56;;;;;;;13.20;5.10;;;;;;;;;;5101652;28;20032;-75
2021/12/18 05:02:32;;;;;;;12.00;4.35;;;;;;;;;;5107561;28;20035;-75
2021/12/18 05:04:58;;;;;;;7.47;3.92;;;;;;;;;;5106762;28;20502;-75
2021/12/18 05:07:25;;;;;;;9.88;4.55;;;;;;;;;;5098995;28;20020;-75
2021/12/18 05:09:51;;;;;;;9.13;4.13;;;;;;;;;;5103319;28;20436;-75
2021/12/18 05:12:17;;;;;;;12.15;4.07;;;;;;;;;;5110139;27;20051;-75
2021/12/18 05:14:43;;;;;;;12.57;4.13;;;;;;;;;;5104111;28;20286;-76
2021/12/18 05:17:09;;;;;;;7.57;3.95;;;;;;;;;;5103457;28;20023;-75
2021/12/18 05:19:35;;;;;;;6.50;3.25;;;;;;;;;;5100568;28;20032;-74
2021/12/18 05:22:01;;;;;;;7.18;3.28;;;;;;;;;;5104290;28;20024;-74
2021/12/18 05:24:27;;;;;;;6.38;3.30;;;;;;;;;;5102146;28;20030;-74
2021/12/18 05:26:53;;;;;;;9.20;3.67;;;;;;;;;;5103117;28;20485;-74
2021/12/18 05:29:20;;;;;;;8.55;4.03;;;;;;;;;;5096925;28;20512;-75
2021/12/18 05:31:46;;;;;;;8.73;4.10;;;;;;;;;;5099177;28;20032;-74
2021/12/18 05:34:20;;;;;;;10.07;4.03;;;;;;;;;;5104573;28;20035;-74
2021/12/18 05:39:22;;;;;;;11.93;4.95;;;;;;;;;;5107545;28;20386;-74
2021/12/18 05:41:50;;;;;;;12.73;4.68;;;;;;;;;;5102507;28;20028;-75
2021/12/18 05:44:17;;;;;;;14.95;4.88;;;;;;;;;;5110543;28;20030;-75
2021/12/18 05:46:43;;;;;;;17.55;4.95;;;;;;;;;;5098598;28;20097;-75
2021/12/18 05:49:10;;;;;;;18.65;5.15;;;;;;;;;;5107813;28;20392;-75
2021/12/18 05:51:37;;;;;;;24.55;4.72;;;;;;;;;;5098770;28;20052;-75
2021/12/18 05:54:03;;;;;;;10.63;4.85;;;;;;;;;;5101967;28;20019;-75
2021/12/18 05:56:29;;;;;;;9.38;4.75;;;;;;;;;;5097004;28;20039;-76
2021/12/18 05:58:56;;;;;;;30.88;5.95;;;;;;;;;;5094029;28;20043;-76
2021/12/18 06:01:22;;;;;;;21.25;4.95;;;;;;;;;;5098028;28;20047;-75
2021/12/18 06:03:48;;;;;;;12.38;5.07;;;;;;;;;;5096202;28;20030;-75
2021/12/18 06:06:14;;;;;;;15.73;5.55;;;;;;;;;;5103367;28;20032;-78
2021/12/18 06:08:42;;;;;;;21.73;6.95;;;;;;;;;;5105284;28;20059;-77
2021/12/18 06:11:13;;;;;;;17.67;7.68;;;;;;;;;;5098784;28;20405;-76
2021/12/18 06:13:39;;;;;;;25.73;6.28;;;;;;;;;;5098717;28;20436;-75
2021/12/18 06:16:06;;;;;;;11.65;5.18;;;;;;;;;;5093879;28;20032;-75
2021/12/18 06:18:33;;;;;;;9.93;5.20;;;;;;;;;;5096616;28;20043;-75
2021/12/18 06:20:59;;;;;;;20.33;4.38;;;;;;;;;;5098294;28;20043;-76
2021/12/18 06:23:25;;;;;;;17.42;4.55;;;;;;;;;;5102221;28;20032;-76
2021/12/18 06:25:51;;;;;;;21.48;5.20;;;;;;;;;;5104491;28;20036;-74
2021/12/18 06:28:17;;;;;;;24.85;4.43;;;;;;;;;;5097672;28;20448;-75
2021/12/18 06:30:43;;;;;;;11.32;4.10;;;;;;;;;;5101090;28;20034;-75
2021/12/18 06:33:09;;;;;;;11.75;4.65;;;;;;;;;;5101569;28;20061;-76
2021/12/18 06:35:35;;;;;;;17.95;4.90;;;;;;;;;;5096682;28;20032;-75
2021/12/18 06:38:01;;;;;;;18.02;4.85;;;;;;;;;;5102248;28;20425;-75
2021/12/18 06:40:27;;;;;;;14.82;4.15;;;;;;;;;;5104330;28;20529;-75
2021/12/18 06:42:53;;;;;;;13.38;5.05;;;;;;;;;;5101844;28;20118;-75
2021/12/18 06:45:19;;;;;;;10.00;4.15;;;;;;;;;;5099504;28;20045;-76
2021/12/18 06:47:45;;;;;;;17.38;4.47;;;;;;;;;;5106079;28;20726;-75
2021/12/18 06:50:11;;;;;;;11.82;4.40;;;;;;;;;;5107061;28;20039;-77
2021/12/18 06:52:37;;;;;;;9.85;4.68;;;;;;;;;;5110108;28;20061;-77
2021/12/18 06:55:04;;;;;;;8.73;4.57;;;;;;;;;;5101433;28;20035;-77
2021/12/18 06:57:30;;;;;;;9.82;4.07;;;;;;;;;;5097756;28;20038;-77
2021/12/18 06:59:56;;;;;;;10.63;4.22;;;;;;;;;;5103862;28;20594;-76
2021/12/18 07:02:22;;;;;;;50.55;26.73;;;;;;;;;;5103865;28;20039;-77
2021/12/18 07:04:48;;;;;;;16.13;8.75;;;;;;;;;;5101494;28;20081;-76
2021/12/18 07:07:14;;;;;;;16.15;6.30;;;;;;;;;;5102065;28;20028;-76
2021/12/18 07:09:40;;;;;;;10.40;5.18;;;;;;;;;;5101791;28;20051;-76
2021/12/18 07:12:10;;;;;;;12.82;5.07;;;;;;;;;;5100810;28;20111;-77
2021/12/18 07:14:36;;;;;;;10.63;4.95;;;;;;;;;;5105918;28;20024;-76
2021/12/18 07:17:02;;;;;;;12.25;4.63;;;;;;;;;;5099723;28;20093;-76
2021/12/18 07:19:28;;;;;;;11.68;4.55;;;;;;;;;;5109174;28;20073;-77
2021/12/18 07:21:54;;;;;;;13.38;5.25;;;;;;;;;;5106250;28;20051;-77
2021/12/18 07:24:20;;;;;;;12.80;5.07;;;;;;;;;;5104682;28;20028;-77
2021/12/18 07:26:46;;;;;;;13.35;4.90;;;;;;;;;;5106357;28;20397;-75
2021/12/18 07:29:12;;;;;;;12.30;5.43;;;;;;;;;;5105353;28;20540;-76
2021/12/18 07:31:38;;;;;;;13.40;5.13;;;;;;;;;;5108480;28;20036;-76
2021/12/18 07:34:04;;;;;;;15.20;5.05;;;;;;;;;;5111624;28;20084;-76
2021/12/18 07:36:30;;;;;;;14.80;4.22;;;;;;;;;;5106345;28;20027;-76
2021/12/18 07:38:57;;;;;;;12.73;4.65;;;;;;;;;;5105541;28;20039;-75
2021/12/18 07:41:23;;;;;;;12.70;5.13;;;;;;;;;;5101104;28;20439;-75
2021/12/18 07:43:49;;;;;;;13.55;4.70;;;;;;;;;;5104774;28;20088;-76
2021/12/18 07:46:15;;;;;;;21.40;8.60;;;;;;;;;;5107683;28;20032;-74
2021/12/18 07:48:41;;;;;;;10.15;4.75;;;;;;;;;;5097570;28;20059;-74
2021/12/18 07:51:07;;;;;;;16.48;5.35;;;;;;;;;;5107633;28;20027;-73
2021/12/18 07:53:33;;;;;;;13.77;4.82;;;;;;;;;;5109151;28;20031;-72
2021/12/18 07:56:01;;;;;;;10.20;4.75;;;;;;;;;;5104152;28;20032;-72
2021/12/18 07:58:27;;;;;;;12.32;5.40;;;;;;;;;;5104866;28;20048;-73
2021/12/18 08:00:53;;;;;;;10.68;4.53;;;;;;;;;;5101877;28;20104;-71
2021/12/18 08:03:19;;;;;;;15.40;5.35;;;;;;;;;;5101288;28;20124;-72
2021/12/18 08:05:45;;;;;;;22.52;5.40;;;;;;;;;;5108359;28;20081;-72
2021/12/18 08:08:11;;;;;;;15.30;5.95;;;;;;;;;;5102728;28;20016;-72
2021/12/18 08:10:37;;;;;;;16.83;5.47;;;;;;;;;;5104360;28;20028;-72
2021/12/18 08:13:03;;;;;;;15.80;5.97;;;;;;;;;;5103443;28;20557;-72
2021/12/18 08:15:29;;;;;;;14.02;5.50;;;;;;;;;;5110983;28;20167;-72
2021/12/18 08:17:57;;;;;;;14.93;4.95;;;;;;;;;;5105477;28;20118;-72
2021/12/18 08:20:23;;;;;;;15.27;5.10;;;;;;;;;;5113459;28;20118;-73
2021/12/18 08:22:50;;;;;;;15.43;4.63;;;;;;;;;;5100085;28;20115;-73
2021/12/18 08:25:16;;;;;;;13.07;4.75;;;;;;;;;;5099689;28;20043;-73
2021/12/18 08:27:42;;;;;;;13.25;5.13;;;;;;;;;;5106117;28;20374;-72
2021/12/18 08:30:08;;;;;;;16.55;4.90;;;;;;;;;;5105893;28;20043;-73
2021/12/18 08:32:34;;;;;;;14.45;5.32;;;;;;;;;;5101106;28;20036;-73
2021/12/18 08:35:00;;;;;;;10.82;4.90;;;;;;;;;;5097608;28;20077;-73
2021/12/18 08:37:26;;;;;;;14.43;5.18;;;;;;;;;;5100504;28;20032;-73
2021/12/18 08:39:52;;;;;;;14.48;5.22;;;;;;;;;;5101290;28;20482;-73
2021/12/18 08:42:18;;;;;;;12.18;4.85;;;;;;;;;;5110442;28;20039;-73
2021/12/18 08:44:44;;;;;;;17.90;5.00;;;;;;;;;;5105848;28;20038;-72
2021/12/18 08:47:10;;;;;;;16.17;4.82;;;;;;;;;;5094917;28;20119;-73
2021/12/18 08:49:38;;;;;;;13.48;5.22;;;;;;;;;;5102469;28;20020;-73
2021/12/18 08:52:04;;;;;;;13.82;4.72;;;;;;;;;;5097005;28;20512;-73
2021/12/18 08:54:30;;;;;;;19.60;5.88;;;;;;;;;;5104603;28;20481;-73
2021/12/18 08:56:56;;;;;;;20.13;5.05;;;;;;;;;;5103083;28;20028;-73
2021/12/18 08:59:22;;;;;;;9.93;4.60;;;;;;;;;;5099699;28;20032;-73
2021/12/18 09:01:48;;;;;;;11.73;4.30;;;;;;;;;;5105813;28;20393;-73
2021/12/18 09:04:14;;;;;;;15.27;5.55;;;;;;;;;;5109123;28;20036;-72
2021/12/18 09:06:40;;;;;;;10.93;4.65;;;;;;;;;;5098897;28;20127;-72
2021/12/18 09:09:06;;;;;;;10.32;4.10;;;;;;;;;;5108135;28;20051;-72
2021/12/18 09:11:33;;;;;;;15.73;5.00;;;;;;;;;;5095996;28;20063;-77
2021/12/18 09:14:00;;;;;;;10.68;4.93;;;;;;;;;;5103836;28;20035;-74
2021/12/18 09:16:26;;;;;;;12.82;5.68;;;;;;;;;;5100976;28;20505;-75
2021/12/18 09:18:52;;;;;;;11.77;5.25;;;;;;;;;;5105102;28;20047;-75
2021/12/18 09:21:20;;;;;;;12.48;5.28;;;8.50;99.90;;;;;;5102733;28;20115;-75
2021/12/18 09:23:46;;;;;;;15.95;5.25;;;;;;;;;;5099220;28;20043;-75
2021/12/18 09:26:13;;;;;;;14.05;5.45;;;;;;;;;;5098335;28;20047;-75
2021/12/18 09:28:39;;;;;;;16.85;5.80;;;;;;;;;;5095981;28;20118;-75
2021/12/18 09:31:05;;;;;;;11.63;5.60;;;;;;;;;;5101567;28;20460;-75
2021/12/18 09:33:31;;;;;;;23.70;8.95;;;;;;;;;;5095448;28;20056;-77
2021/12/18 09:35:57;;;;;;;16.15;6.53;;;;;;;;;;5104482;28;20036;-76
2021/12/18 09:38:23;;;;;;;9.07;4.28;;;;;;;;;;5093338;27;20036;-76
2021/12/18 09:40:51;;;;;;;10.70;3.90;;;;;;;;;;5099493;28;20101;-76
2021/12/18 09:43:17;;;;;;;5.40;4.00;;;;;;;;;;5092207;28;20028;-76
2021/12/18 09:45:45;;;;;;;18.60;4.60;;;;;;;;;;5100087;28;20028;-76
2021/12/18 09:48:11;;;;;;;10.85;3.83;;;;;;;;;;5096059;28;20485;-77
2021/12/18 09:50:38;;;;;;;8.55;3.58;;;;;;;;;;5098821;28;20032;-76
2021/12/18 09:53:05;;;;;;;7.05;4.28;;;;;;;;;;5099312;28;20117;-76
2021/12/18 09:55:32;;;;;;;9.65;4.25;;;;;;;;;;5098602;28;20438;-75
2021/12/18 09:57:58;;;;;;;7.22;4.43;;;;;;;;;;5105943;28;20122;-76
2021/12/18 10:00:25;;;;;;;10.38;5.07;;;;;;;;;;5101931;28;20141;-74
2021/12/18 10:02:52;;;;;;;9.52;4.90;;;8.50;99.90;;;;;;5103759;28;20411;-74
2021/12/18 10:05:25;;;;;;;8.73;4.30;;;;;;;;;;5101405;28;20042;-74
2021/12/18 10:08:06;;;;;;;11.90;4.45;;;;;;;;;;5103074;28;20115;-74
2021/12/18 10:10:32;;;;;;;11.10;4.65;;;;;;;;;;5100956;28;20036;-74
2021/12/18 10:13:03;;;;;;;9.05;4.22;;;;;;;;;;5100821;28;20129;-74
2021/12/18 10:15:29;;;;;;;12.40;4.93;;;;;;;;;;5094903;28;20031;-75
2021/12/18 10:18:05;;;;;;;17.60;7.80;;;;;;;;;;5101387;28;20032;-74
2021/12/18 10:20:31;;;;;;;13.10;6.45;;;;;;;;;;5101204;28;20399;-75
2021/12/18 10:23:05;;;;;;;7.68;4.60;;;;;;;;;;5100391;28;20028;-76
2021/12/18 10:25:42;;;;;;;8.35;2.97;;;;;;;;;;5097297;28;20390;-75
2021/12/18 10:28:15;;;;;;;8.07;3.15;;;;;;;;;;5091174;28;20028;-75
2021/12/18 10:30:49;;;;;;;8.48;2.88;;;;;;;;;;5103519;28;20069;-76
2021/12/18 10:33:15;;;;;;;3.83;2.30;;;;;;;;;;5093081;28;20079;-75
2021/12/18 10:35:50;;;;;;;3.10;2.40;;;;;;;;;;5103906;28;20039;-74
2021/12/18 10:38:55;;;;;;;4.20;2.08;;;;;;;;;;5093797;28;20028;-75
2021/12/18 10:41:34;;;;;;;9.35;2.10;;;8.90;99.90;;;;;;5039602;28;20391;-74
2021/12/18 10:44:07;;;;;;;2.13;1.70;;;;;;;;;;5044729;28;20040;-74
2021/12/18 10:46:34;;;;;;;3.55;2.20;;;;;;;;;;5087260;28;20036;-74
2021/12/18 10:49:08;;;;;;;4.97;2.05;;;;;;;;;;5100179;28;20024;-74
2021/12/18 10:51:35;;;;;;;5.25;2.20;;;;;;;;;;5104416;28;20032;-75
2021/12/18 10:54:03;;;;;;;6.68;2.50;;;;;;;;;;5106955;28;20058;-75
2021/12/18 10:56:39;;;;;;;10.60;3.25;;;;;;;;;;5109140;28;20031;-74
2021/12/18 10:59:20;;;;;;;4.25;2.22;;;8.80;99.90;;;;;;5102844;28;20043;-74
2021/12/18 11:01:53;;;;;;;7.07;3.55;;;;;;;;;;5108146;28;20496;-74
2021/12/18 11:04:23;;;;;;;6.15;4.20;;;;;;;;;;5106623;28;20031;-74
2021/12/18 11:06:49;;;;;;;12.00;3.45;;;;;;;;;;5108425;28;20023;-75
2021/12/18 11:09:17;;;;;;;8.10;3.50;;;;;;;;;;5107653;28;20053;-74
2021/12/18 11:14:12;;;;;;;6.72;3.08;;;;;;;;;;5104969;28;20028;-74
2021/12/18 11:16:40;;;;;;;8.77;4.00;;;;;;;;;;5107959;28;20278;-75
2021/12/18 11:19:13;;;;;;;12.02;3.90;;;;;;;;;;5113721;27;20065;-75
2021/12/18 11:21:43;;;;;;;5.72;3.45;;;;;;;;;;5102574;27;20055;-75
2021/12/18 11:24:10;;;;;;;7.57;3.40;;;;;;;;;;5100509;28;20016;-75
2021/12/18 11:26:41;;;;;;;4.68;3.30;;;;;;;;;;5103845;28;20051;-74
2021/12/18 11:29:11;;;;;;;17.70;4.00;;;;;;;;;;5103691;28;20053;-75
2021/12/18 11:31:38;;;;;;;12.35;3.72;;;;;;;;;;5103784;28;20452;-74
2021/12/18 11:34:05;;;;;;;12.50;3.92;;;;;;;;;;5106368;28;20510;-74
2021/12/18 11:36:32;;;;;;;12.85;4.10;;;;;;;;;;5113440;28;20043;-74
2021/12/18 11:38:58;;;;;;;11.55;4.20;;;;;;;;;;5105710;28;20385;-75
2021/12/18 11:41:24;;;;;;;11.43;3.38;;;;;;;;;;5110708;28;20038;-74
2021/12/18 11:43:51;;;;;;;11.00;3.78;;;;;;;;;;5102836;28;20032;-74
2021/12/18 11:46:30;;;;;;;12.27;3.78;;;;;;;;;;5109304;28;20034;-74
2021/12/18 11:49:04;;;;;;;11.82;4.10;;;;;;;;;;5111782;28;20050;-74
2021/12/18 11:51:31;;;;;;;13.27;4.40;;;;;;;;;;5103300;28;20053;-74
2021/12/18 11:53:57;;;;;;;9.38;4.22;;;;;;;;;;5111870;28;20424;-74
2021/12/18 11:56:24;;;;;;;14.55;4.75;;;;;;;;;;5104816;28;20038;-74
2021/12/18 11:58:50;;;;;;;11.40;4.40;;;;;;;;;;5109967;28;20036;-74
2021/12/18 12:01:27;;;;;;;9.95;4.20;;;;;;;;;;5102509;28;20123;-74
2021/12/18 12:03:53;;;;;;;8.43;3.83;;;;;;;;;;5112630;28;20058;-74
2021/12/18 12:06:28;;;;;;;6.25;2.60;;;;;;;;;;5106616;28;20051;-74
2021/12/18 12:09:09;;;;;;;21.73;4.82;;;;;;;;;;5112571;28;20520;-74
2021/12/18 12:11:50;;;;;;;7.95;2.42;;;9.40;99.90;;;;;;5106311;28;20034;-74
2021/12/18 12:14:16;;;;;;;12.18;2.65;;;;;;;;;;5108103;28;20469;-75
2021/12/18 12:16:48;;;;;;;12.68;2.55;;;;;;;;;;5106155;28;20032;-74
2021/12/18 12:19:15;;;;;;;10.45;2.83;;;;;;;;;;5109671;28;20085;-74
2021/12/18 12:21:45;;;;;;;7.57;2.88;;;;;;;;;;5108723;28;20044;-75
2021/12/18 12:24:12;;;;;;;10.52;2.38;;;;;;;;;;5099409;28;20030;-74
2021/12/18 12:26:38;;;;;;;8.57;3.30;;;;;;;;;;5110464;28;20069;-74
2021/12/18 12:29:05;;;;;;;9.90;2.83;;;;;;;;;;5105314;28;20077;-74
2021/12/18 12:31:32;;;;;;;9.77;2.67;;;;;;;;;;5111353;28;20036;-74
2021/12/18 12:34:16;;;;;;;12.95;2.42;;;;;;;;;;5105022;28;20032;-74
2021/12/18 12:36:45;;;;;;;8.40;2.28;;;;;;;;;;5109884;28;20058;-75
2021/12/18 12:39:14;;;;;;;8.48;2.65;;;;;;;;;;5105861;28;20113;-74
2021/12/18 12:41:42;;;;;;;9.63;2.95;;;;;;;;;;5109108;28;20500;-74
2021/12/18 12:44:18;;;;;;;10.60;2.35;;;;;;;;;;5106690;28;20028;-75
2021/12/18 12:46:45;;;;;;;10.15;2.88;;;9.30;99.90;;;;;;5106681;28;20039;-75
2021/12/18 12:49:12;;;;;;;9.60;2.50;;;;;;;;;;5108363;28;20505;-75
2021/12/18 12:51:57;;;;;;;8.38;2.60;;;;;;;;;;5114901;28;20627;-74
2021/12/18 12:54:45;;;;;;;7.03;2.13;;;9.10;99.90;;;;;;5102190;28;20066;-74
2021/12/18 12:57:27;;;;;;;9.88;2.78;;;;;;;;;;5109007;28;20028;-75
2021/12/18 12:59:53;;;;;;;11.23;3.15;;;;;;;;;;5110827;28;20024;-74
2021/12/18 13:02:20;;;;;;;9.10;2.38;;;;;;;;;;5108131;28;20039;-75
2021/12/18 13:04:47;;;;;;;8.80;2.20;;;;;;;;;;5108336;28;20023;-75
2021/12/18 13:07:13;;;;;;;4.72;1.80;;;;;;;;;;5107386;28;20032;-75
2021/12/18 13:09:46;;;;;;;7.00;2.15;;;;;;;;;;5108398;28;20032;-74
2021/12/18 13:12:13;;;;;;;9.25;2.63;;;;;;;;;;5103426;28;20042;-75
2021/12/18 13:14:40;;;;;;;8.98;2.53;;;;;;;;;;5110481;28;20057;-75
2021/12/18 13:17:28;;;;;;;14.95;3.55;;;9.40;99.90;;;;;;5097793;28;20040;-75
2021/12/18 13:19:59;;;;;;;14.52;3.17;;;;;;;;;;5108648;28;20031;-74
2021/12/18 13:22:30;;;;;;;5.95;2.40;;;9.30;99.90;;;;;;5104800;28;20435;-74
2021/12/18 13:25:07;;;;;;;7.72;2.40;;;9.20;99.90;;;;;;5105710;28;20032;-74
2021/12/18 13:27:33;;;;;;;11.07;2.65;;;;;;;;;;5101472;28;20039;-74
2021/12/18 13:30:09;;;;;;;8.13;2.58;;;;;;;;;;5096633;28;20084;-74
2021/12/18 13:32:35;;;;;;;6.53;2.38;;;;;;;;;;5103477;28;20019;-74
2021/12/18 13:35:01;;;;;;;11.25;2.80;;;;;;;;;;5107207;28;20527;-75
2021/12/18 13:37:27;;;;;;;6.57;2.33;;;;;;;;;;5104443;28;20144;-74
2021/12/18 13:39:54;;;;;;;13.70;3.00;;;;;;;;;;5100981;28;20030;-74
2021/12/18 13:42:24;;;;;;;12.63;3.35;;;;;;;;;;5105037;27;20446;-74
2021/12/18 13:44:50;;;;;;;9.00;2.95;;;;;;;;;;5111358;28;20473;-75
2021/12/18 13:47:16;;;;;;;9.70;3.30;;;;;;;;;;5100156;28;20115;-74
2021/12/18 13:49:42;;;;;;;10.85;3.45;;;;;;;;;;5109405;28;20098;-75
2021/12/18 13:52:08;;;;;;;5.78;3.35;;;;;;;;;;5097811;27;20436;-74
2021/12/18 13:54:35;;;;;;;6.20;3.35;;;;;;;;;;5101384;28;20036;-75
2021/12/18 13:57:01;;;;;;;7.05;3.08;;;;;;;;;;5097031;28;20032;-74
2021/12/18 13:59:28;;;;;;;9.73;3.08;;;;;;;;;;5101234;28;20048;-74
2021/12/18 14:01:54;;;;;;;8.52;3.08;;;;;;;;;;5111212;28;20050;-75
2021/12/18 14:04:23;;;;;;;6.82;2.58;;;;;;;;;;5102787;28;20028;-75
2021/12/18 14:06:49;;;;;;;16.20;3.97;;;9.10;99.90;;;;;;5110513;28;20028;-74
2021/12/18 14:09:20;;;;;;;8.25;2.83;;;;;;;;;;5104544;28;20587;-75
2021/12/18 14:11:54;;;;;;;6.50;2.55;;;;;;;;;;5109443;28;20054;-75
2021/12/18 14:14:32;;;;;;;5.68;2.05;;;;;;;;;;5106479;28;20028;-75
2021/12/18 14:16:58;;;;;;;3.90;2.20;;;;;;;;;;5111012;28;20036;-74
2021/12/18 14:19:32;;;;;;;5.50;2.50;;;9.10;99.90;;;;;;5105481;28;20028;-74
2021/12/18 14:21:59;;;;;;;5.65;2.63;;;;;;;;;;5094259;28;20081;-75
2021/12/18 14:24:25;;;;;;;8.80;2.95;;;;;;;;;;5101625;28;20111;-75
2021/12/18 14:26:59;;;;;;;7.40;3.30;;;;;;;;;;5101299;28;20136;-74
2021/12/18 14:29:26;;;;;;;7.85;2.35;;;;;;;;;;5103012;28;20062;-74
2021/12/18 14:31:55;;;;;;;10.60;2.67;;;9.10;99.90;;;;;;5108274;28;20034;-75
2021/12/18 14:34:26;;;;;;;8.80;2.42;;;;;;;;;;5103502;28;20050;-75
2021/12/18 14:36:58;;;;;;;6.70;2.70;;;;;;;;;;5111070;28;20032;-74
2021/12/18 14:39:28;;;;;;;10.15;2.70;;;8.60;99.90;;;;;;5106692;28;20268;-74
2021/12/18 14:41:55;;;;;;;7.63;2.58;;;;;;;;;;5102873;28;20103;-74
2021/12/18 14:44:21;;;;;;;6.07;2.35;;;;;;;;;;5106441;28;20024;-74
2021/12/18 14:46:47;;;;;;;6.38;2.72;;;;;;;;;;5106036;28;20059;-74
2021/12/18 14:49:14;;;;;;;6.10;2.55;;;;;;;;;;5100304;28;20028;-74
2021/12/18 14:51:43;;;;;;;8.77;2.97;;;;;;;;;;5096030;28;20032;-74
2021/12/18 14:54:09;;;;;;;9.93;2.65;;;;;;;;;;5103759;28;20564;-75
2021/12/18 14:56:35;;;;;;;8.52;2.70;;;;;;;;;;5097313;28;20046;-75
2021/12/18 14:59:01;;;;;;;8.73;2.53;;;;;;;;;;5093247;28;20393;-75
2021/12/18 15:01:28;;;;;;;13.93;3.30;;;;;;;;;;5097023;28;20488;-75
2021/12/18 15:03:56;;;;;;;9.43;2.92;;;;;;;;;;5107676;28;20064;-75
2021/12/18 15:06:38;;;;;;;7.40;3.33;;;;;;;;;;5105028;28;20027;-75
2021/12/18 15:09:06;;;;;;;8.82;2.58;;;;;;;;;;5103751;28;20031;-75
2021/12/18 15:11:35;;;;;;;5.70;2.60;;;;;;;;;;5100931;28;20032;-74
2021/12/18 15:14:38;;;;;;;8.32;3.03;;;;;;;;;;5095955;28;20116;-74
2021/12/18 15:17:05;;;;;;;;;;;8.80;99.90;;;;;;5064500;28;20119;-74
2021/12/18 15:19:32;;;;;;;7.55;3.10;;;;;;;;;;5097961;28;19919;-74
2021/12/18 15:22:00;;;;;;;13.65;3.78;;;;;;;;;;5095516;28;20037;-74